Time;durP1;ratioP1;P1;durP2;ratioP2;P2;SDS_P1;SDS_P2;PMS_P1;PMS_P2;Temp;Humidity;BMP_temperature;BMP_pressure;BME280_temperature;BME280_humidity;BME280_pressure;Samples;Min_cycle;Max_cycle;Signal;HPM_P1;HPM_P2
2021/11/21 00:01:21;;;;;;;12.30;8.30;;;;;;;6.84;55.68;100625.79;117453;1184;21850;-56
2021/11/21 00:03:50;;;;;;;12.20;8.00;;;;;;;6.81;55.65;100626.81;117395;1182;23432;-58
2021/11/21 00:06:20;;;;;;;11.60;8.40;;;;;;;6.82;55.84;100630.15;117411;1182;24161;-59
2021/11/21 00:08:48;;;;;;;16.20;10.20;;;;;;;6.84;55.88;100628.40;117380;1185;22922;-58
2021/11/21 00:11:17;;;;;;;13.40;9.60;;;;;;;6.87;55.88;100623.01;117323;1188;21867;-58
2021/11/21 00:13:54;;;;;;;13.60;9.60;;;;;;;6.90;55.80;100621.98;117281;1182;24221;-56
2021/11/21 00:16:23;;;;;;;15.90;11.00;;;;;;;6.89;55.77;100625.80;117390;1185;22916;-56
2021/11/21 00:18:51;;;;;;;15.20;10.20;;;;;;;6.89;55.93;100631.39;117373;1188;21848;-56
2021/11/21 00:21:20;;;;;;;14.50;10.90;;;;;;;6.99;55.75;100631.98;117377;1185;23443;-58
2021/11/21 00:23:48;;;;;;;15.00;11.70;;;;;;;6.79;55.73;100631.50;117338;1185;22807;-56
2021/11/21 00:26:16;;;;;;;13.80;11.10;;;;;;;6.89;55.81;100632.45;117343;1185;21862;-56
2021/11/21 00:28:44;;;;;;;13.60;10.40;;;;;;;6.89;55.87;100636.09;117323;1183;24286;-59
2021/11/21 00:31:14;;;;;;;14.20;9.50;;;;;;;7.27;54.75;100639.66;117375;1184;22808;-58
2021/11/21 00:33:42;;;;;;;11.60;8.80;;;;;;;6.88;55.46;100641.86;117312;1185;21870;-58
2021/11/21 00:36:10;;;;;;;12.40;9.00;;;;;;;6.69;55.71;100637.70;117350;1185;24149;-59
2021/11/21 00:38:38;;;;;;;15.70;10.70;;;;;;;6.70;55.83;100624.80;117389;1185;21853;-56
2021/11/21 00:41:06;;;;;;;15.70;11.90;;;;;;;6.62;55.71;100621.61;117386;1183;23442;-56
2021/11/21 00:43:35;;;;;;;18.10;12.30;;;;;;;6.60;55.83;100614.63;117311;1188;21857;-58
2021/11/21 00:46:03;;;;;;;14.10;10.40;;;;;;;6.76;55.65;100615.79;117248;1186;21845;-56
2021/11/21 00:48:33;;;;;;;15.80;11.80;;;;;;;6.76;55.59;100623.98;117386;1183;21850;-55
2021/11/21 00:51:03;;;;;;;15.90;11.00;;;;;;;6.57;55.93;100624.37;117421;1179;21857;-55
2021/11/21 00:53:32;;;;;;;15.40;11.50;;;;;;;6.54;55.95;100628.53;117342;1185;21912;-58
2021/11/21 00:56:04;;;;;;;14.90;11.30;;;;;;;6.52;55.78;100637.05;117354;1186;21869;-56
2021/11/21 00:58:33;;;;;;;19.20;12.70;;;;;;;6.53;55.94;100639.14;117399;1188;21892;-56
2021/11/21 01:01:01;;;;;;;17.90;12.60;;;;;;;6.54;55.84;100632.89;117436;1183;22994;-59
2021/11/21 01:03:30;;;;;;;18.80;12.80;;;;;;;6.53;56.02;100637.41;117383;1186;21857;-58
2021/11/21 01:05:59;;;;;;;17.90;12.70;;;;;;;6.55;56.06;100640.91;117259;1186;24139;-56
2021/11/21 01:08:27;;;;;;;16.20;11.70;;;;;;;6.61;56.04;100632.94;117357;1185;24162;-56
2021/11/21 01:10:59;;;;;;;18.40;12.80;;;;;;;6.59;56.07;100639.55;117334;1185;23540;-56
2021/11/21 01:13:28;;;;;;;18.30;11.90;;;;;;;6.62;55.94;100638.52;117407;1184;21970;-56
2021/11/21 01:15:56;;;;;;;17.00;12.90;;;;;;;6.63;55.67;100642.55;117412;1185;21867;-58
2021/11/21 01:18:25;;;;;;;17.90;14.20;;;;;;;6.56;55.93;100636.39;117315;1185;23483;-59
2021/11/21 01:20:54;;;;;;;17.20;13.40;;;;;;;6.52;56.04;100637.57;117166;1186;23450;-56
2021/11/21 01:23:22;;;;;;;23.20;14.50;;;;;;;6.57;56.03;100630.81;117240;1186;22930;-56
2021/11/21 01:25:50;;;;;;;19.90;14.20;;;;;;;6.56;56.01;100628.71;117392;1182;21983;-58
2021/11/21 01:28:19;;;;;;;23.80;13.20;;;;;;;6.59;56.10;100628.73;117432;1182;23493;-56
2021/11/21 01:30:47;;;;;;;17.60;13.70;;;;;;;6.56;55.97;100624.52;117449;1185;23469;-59
2021/11/21 01:33:16;;;;;;;19.40;14.50;;;;;;;6.57;55.79;100624.89;117335;1183;23751;-56
2021/11/21 01:35:44;;;;;;;19.00;14.40;;;;;;;6.46;55.91;100634.20;117429;1185;21857;-55
2021/11/21 01:38:13;;;;;;;18.90;13.20;;;;;;;6.40;56.15;100631.71;117307;1185;23473;-59
2021/11/21 01:40:41;;;;;;;18.30;13.70;;;;;;;6.36;55.89;100629.08;117371;1185;21878;-58
2021/11/21 01:43:10;;;;;;;15.70;12.50;;;;;;;6.29;56.18;100629.86;117433;1184;24869;-56
2021/11/21 01:45:38;;;;;;;18.50;12.90;;;;;;;6.22;55.95;100628.24;117437;1185;24213;-56
2021/11/21 01:48:06;;;;;;;18.30;13.10;;;;;;;6.14;56.10;100622.42;117366;1188;21864;-58
2021/11/21 01:50:38;;;;;;;18.20;13.30;;;;;;;6.07;56.45;100629.50;117387;1185;23469;-58
2021/11/21 01:53:06;;;;;;;19.10;14.30;;;;;;;6.02;56.11;100634.13;117414;1183;22648;-58
2021/11/21 01:55:35;;;;;;;18.70;13.40;;;;;;;6.00;55.93;100630.79;117474;1183;22647;-55
2021/11/21 01:58:03;;;;;;;16.00;12.50;;;;;;;6.02;56.11;100629.42;117428;1183;23481;-58
2021/11/21 02:00:37;;;;;;;20.90;13.80;;;;;;;6.00;56.18;100628.54;117436;1186;23560;-54
2021/11/21 02:03:06;;;;;;;21.60;13.00;;;;;;;5.91;56.11;100630.16;117440;1183;22979;-58
2021/11/21 02:05:35;;;;;;;22.40;14.60;;;;;;;5.93;56.05;100624.27;117424;1185;23451;-58
2021/11/21 02:08:04;;;;;;;19.70;14.40;;;;;;;5.94;56.14;100622.88;117371;1185;21857;-58
2021/11/21 02:10:36;;;;;;;18.00;14.30;;;;;;;5.97;56.44;100622.54;117252;1186;23636;-58
2021/11/21 02:13:05;;;;;;;20.60;14.00;;;;;;;5.98;56.64;100621.69;117296;1182;22646;-56
2021/11/21 02:15:36;;;;;;;33.00;18.70;;;;;;;6.00;56.44;100625.73;117338;1182;23588;-56
2021/11/21 02:18:06;;;;;;;34.20;21.30;;;;;;;5.99;56.32;100634.59;117335;1185;23547;-55
2021/11/21 02:20:35;;;;;;;44.20;23.50;;;;;;;5.93;56.16;100643.25;117309;1186;23594;-55
2021/11/21 02:23:04;;;;;;;36.50;20.70;;;;;;;5.92;56.23;100643.59;117314;1186;23442;-56
2021/11/21 02:25:33;;;;;;;34.90;20.70;;;;;;;5.85;56.32;100642.11;117349;1185;22931;-59
2021/11/21 02:28:02;;;;;;;36.60;22.00;;;;;;;5.83;56.28;100638.08;117395;1185;22988;-59
2021/11/21 02:30:31;;;;;;;23.30;16.20;;;;;;;5.82;56.66;100637.02;117367;1182;22918;-55
2021/11/21 02:32:59;;;;;;;21.40;14.60;;;;;;;5.82;56.43;100633.02;117309;1186;23444;-59
2021/11/21 02:35:27;;;;;;;18.50;13.40;;;;;;;5.85;56.42;100636.19;117354;1185;23491;-55
2021/11/21 02:37:55;;;;;;;29.60;19.00;;;;;;;5.83;56.37;100647.66;117177;1186;21982;-59
2021/11/21 02:40:23;;;;;;;31.30;20.20;;;;;;;5.83;56.41;100648.52;117307;1185;21858;-56
2021/11/21 02:42:51;;;;;;;35.20;22.40;;;;;;;5.88;56.45;100647.19;117325;1186;23492;-56
2021/11/21 02:45:19;;;;;;;29.70;19.70;;;;;;;5.91;56.46;100653.31;117327;1186;22446;-54
2021/11/21 02:47:48;;;;;;;23.90;16.50;;;;;;;5.90;56.31;100652.61;117388;1186;23615;-55
2021/11/21 02:50:21;;;;;;;22.00;15.90;;;;;;;5.86;56.20;100653.79;117329;1185;21855;-58
2021/11/21 02:52:50;;;;;;;23.50;16.90;;;;;;;5.83;56.16;100658.10;117387;1185;21920;-55
2021/11/21 02:55:18;;;;;;;26.00;17.00;;;;;;;5.82;56.05;100661.06;117378;1186;22035;-55
2021/11/21 02:57:46;;;;;;;27.20;18.10;;;;;;;5.79;56.33;100651.61;117381;1183;23636;-56
2021/11/21 03:00:15;;;;;;;25.30;18.60;;;;;;;5.73;56.38;100648.77;117319;1188;21867;-54
2021/11/21 03:02:45;;;;;;;26.00;18.10;;;;;;;5.78;56.45;100645.85;117387;1185;23166;-59
2021/11/21 03:05:13;;;;;;;26.50;17.90;;;;;;;5.85;56.47;100633.05;117435;1185;22915;-58
2021/11/21 03:07:42;;;;;;;21.60;15.50;;;;;;;5.83;56.59;100626.05;117435;1186;23481;-59
2021/11/21 03:10:12;;;;;;;20.80;14.60;;;;;;;5.82;56.45;100620.13;117406;1182;21901;-56
2021/11/21 03:12:41;;;;;;;20.80;15.20;;;;;;;5.85;56.56;100620.15;117434;1188;21898;-56
2021/11/21 03:15:10;;;;;;;20.10;13.90;;;;;;;5.86;56.29;100617.74;117383;1184;23555;-59
2021/11/21 03:17:42;;;;;;;18.80;13.50;;;;;;;5.85;56.23;100615.29;117424;1184;21988;-59
2021/11/21 03:20:13;;;;;;;20.00;14.30;;;;;;;5.82;56.43;100618.73;117437;1182;23813;-59
2021/11/21 03:22:41;;;;;;;19.00;12.90;;;;;;;5.76;56.42;100614.31;117335;1185;22176;-55
2021/11/21 03:25:11;;;;;;;17.30;12.00;;;;;;;5.70;56.29;100612.34;117446;1182;22916;-56
2021/11/21 03:27:39;;;;;;;17.80;14.10;;;;;;;5.61;55.97;100618.31;117489;1185;23468;-59
2021/11/21 03:30:09;;;;;;;17.20;13.00;;;;;;;5.54;56.17;100626.94;117463;1180;21875;-56
2021/11/21 03:32:38;;;;;;;21.90;15.30;;;;;;;5.51;56.20;100622.73;117482;1185;21854;-55
2021/11/21 03:35:07;;;;;;;19.70;14.80;;;;;;;5.56;56.65;100621.92;117465;1185;23441;-55
2021/11/21 03:37:36;;;;;;;20.10;13.90;;;;;;;5.65;56.72;100621.16;117455;1185;23629;-59
2021/11/21 03:40:06;;;;;;;17.80;14.10;;;;;;;5.74;56.68;100619.86;117480;1188;21894;-55
2021/11/21 03:42:34;;;;;;;23.80;17.10;;;;;;;5.78;56.49;100620.09;117477;1184;22076;-59
2021/11/21 03:45:04;;;;;;;25.20;16.10;;;;;;;5.82;56.53;100622.56;117391;1184;21899;-59
2021/11/21 03:47:33;;;;;;;23.60;16.20;;;;;;;5.84;56.49;100623.29;117364;1183;21867;-54
2021/11/21 03:50:03;;;;;;;23.00;16.30;;;;;;;5.86;56.80;100622.09;117451;1186;21857;-54
2021/11/21 03:52:31;;;;;;;23.20;16.20;;;;;;;5.91;56.75;100620.75;117465;1183;21857;-56
2021/11/21 03:54:59;;;;;;;24.70;17.40;;;;;;;5.92;56.50;100617.29;117418;1186;22057;-59
2021/11/21 03:57:28;;;;;;;23.50;16.60;;;;;;;5.91;56.67;100607.70;117462;1186;23582;-55
2021/11/21 03:59:56;;;;;;;22.10;15.20;;;;;;;5.89;56.56;100605.94;117461;1183;23468;-55
2021/11/21 04:02:24;;;;;;;20.20;14.50;;;;;;;5.87;56.37;100610.78;117404;1186;21851;-59
2021/11/21 04:04:53;;;;;;;20.30;14.50;;;;;;;5.85;56.50;100615.29;117409;1185;21894;-59
2021/11/21 04:07:21;;;;;;;19.40;14.00;;;;;;;5.82;56.39;100611.59;117404;1186;23443;-56
2021/11/21 04:09:49;;;;;;;21.00;14.80;;;;;;;5.77;56.72;100606.66;117361;1185;21857;-55
2021/11/21 04:12:17;;;;;;;20.80;13.90;;;;;;;5.75;56.32;100600.89;117358;1186;23441;-54
2021/11/21 04:14:45;;;;;;;18.80;13.80;;;;;;;5.73;56.33;100599.14;117334;1185;21848;-58
2021/11/21 04:17:13;;;;;;;19.80;13.70;;;;;;;5.69;56.44;100596.84;117504;1182;23444;-56
2021/11/21 04:19:41;;;;;;;21.00;15.50;;;;;;;5.65;56.52;100592.78;117468;1182;23621;-54
2021/11/21 04:22:10;;;;;;;20.10;14.80;;;;;;;5.64;56.46;100598.00;117460;1186;23569;-59
2021/11/21 04:24:38;;;;;;;19.10;13.80;;;;;;;5.60;56.22;100594.13;117393;1185;23681;-59
2021/11/21 04:27:06;;;;;;;20.50;14.80;;;;;;;5.58;56.45;100592.36;117442;1185;21905;-55
2021/11/21 04:29:35;;;;;;;17.60;14.30;;;;;;;5.54;56.34;100590.04;117454;1183;23608;-59
2021/11/21 04:32:04;;;;;;;19.70;13.00;;;;;;;5.48;56.10;100594.14;117449;1183;24162;-54
2021/11/21 04:34:33;;;;;;;20.10;13.60;;;;;;;5.39;56.28;100598.74;117464;1183;22808;-59
2021/11/21 04:37:01;;;;;;;19.10;13.20;;;;;;;5.30;56.07;100596.36;117461;1183;21867;-55
2021/11/21 04:39:29;;;;;;;24.10;15.80;;;;;;;5.22;55.96;100597.66;117419;1185;21858;-56
2021/11/21 04:41:58;;;;;;;20.80;15.60;;;;;;;5.20;56.12;100601.29;117422;1183;23576;-57
2021/11/21 04:44:27;;;;;;;22.30;15.90;;;;;;;5.21;56.12;100598.86;117475;1179;24144;-56
2021/11/21 04:46:55;;;;;;;24.80;15.50;;;;;;;5.18;56.25;100590.48;117450;1185;23464;-57
2021/11/21 04:49:24;;;;;;;21.90;15.20;;;;;;;5.16;56.42;100587.32;117493;1185;24678;-56
2021/11/21 04:51:52;;;;;;;23.70;16.40;;;;;;;5.34;55.97;100588.23;117368;1184;23443;-58
2021/11/21 04:54:22;;;;;;;25.80;17.10;;;;;;;5.57;55.48;100590.25;117395;1184;21859;-58
2021/11/21 04:56:50;;;;;;;20.80;15.90;;;;;;;5.29;56.08;100588.35;117432;1183;21892;-56
2021/11/21 04:59:18;;;;;;;23.00;16.30;;;;;;;5.59;55.35;100582.77;117421;1184;23469;-58
2021/11/21 05:01:47;;;;;;;26.20;17.40;;;;;;;5.15;56.01;100580.17;117407;1186;21870;-57
2021/11/21 05:04:15;;;;;;;23.90;18.10;;;;;;;5.09;56.28;100574.17;117450;1185;21870;-55
2021/11/21 05:06:44;;;;;;;27.30;18.20;;;;;;;5.07;56.56;100572.42;117342;1185;23619;-56
2021/11/21 05:09:12;;;;;;;25.00;17.70;;;;;;;5.07;56.38;100577.28;117411;1185;23644;-56
2021/11/21 05:11:41;;;;;;;23.60;16.90;;;;;;;5.05;56.55;100580.56;117344;1185;23445;-58
2021/11/21 05:14:10;;;;;;;26.30;17.50;;;;;;;5.04;56.43;100579.16;117406;1182;23564;-59
2021/11/21 05:16:38;;;;;;;25.00;17.90;;;;;;;5.02;56.34;100581.73;117383;1188;24187;-55
2021/11/21 05:19:07;;;;;;;22.10;16.10;;;;;;;5.00;56.19;100592.33;117415;1183;23637;-58
2021/11/21 05:21:35;;;;;;;22.40;17.10;;;;;;;5.01;56.49;100584.34;117421;1184;21867;-59
2021/11/21 05:24:03;;;;;;;25.60;17.40;;;;;;;5.01;56.63;100591.65;117430;1186;21854;-59
2021/11/21 05:26:32;;;;;;;26.80;18.60;;;;;;;5.02;56.57;100597.73;117420;1182;22306;-58
2021/11/21 05:29:00;;;;;;;22.50;17.10;;;;;;;5.05;56.54;100604.40;117398;1180;21848;-56
2021/11/21 05:31:29;;;;;;;21.90;16.10;;;;;;;5.11;56.47;100600.98;117344;1186;23451;-59
2021/11/21 05:34:04;;;;;;;22.80;15.80;;;;;;;5.16;56.51;100598.98;117432;1182;21864;-59
2021/11/21 05:36:32;;;;;;;23.00;16.20;;;;;;;5.20;56.51;100597.63;117416;1185;21966;-59
2021/11/21 05:39:01;;;;;;;24.00;17.80;;;;;;;5.23;56.52;100597.85;117452;1183;21895;-56
2021/11/21 05:41:33;;;;;;;24.20;16.10;;;;;;;5.26;56.51;100594.58;117371;1179;23469;-55
2021/11/21 05:44:01;;;;;;;23.40;15.20;;;;;;;5.28;56.35;100591.13;117375;1184;21858;-55
2021/11/21 05:46:29;;;;;;;23.10;17.60;;;;;;;5.29;56.54;100590.45;117448;1185;22920;-59
2021/11/21 05:48:58;;;;;;;28.70;18.10;;;;;;;5.32;56.65;100595.88;117455;1183;23589;-56
2021/11/21 05:51:26;;;;;;;24.10;17.40;;;;;;;5.38;56.64;100598.04;117405;1179;21932;-55
2021/11/21 05:53:54;;;;;;;17.80;15.10;;;;;;;5.44;56.63;100596.72;117368;1183;21924;-57
2021/11/21 05:56:23;;;;;;;27.00;18.20;;;;;;;5.51;56.64;100597.67;117444;1186;21857;-56
2021/11/21 05:58:52;;;;;;;24.80;17.90;;;;;;;5.56;56.49;100592.66;117339;1180;22918;-55
2021/11/21 06:01:22;;;;;;;20.40;16.10;;;;;;;5.58;56.64;100592.88;117392;1185;23685;-56
2021/11/21 06:03:51;;;;;;;20.20;15.20;;;;;;;5.61;56.55;100588.55;118890;1184;23631;-57
2021/11/21 06:06:19;;;;;;;22.20;15.10;;;;;;;5.65;56.90;100586.34;117228;1183;23617;-59
2021/11/21 06:08:48;;;;;;;23.70;15.30;;;;;;;5.70;56.97;100587.27;117339;1185;23471;-60
2021/11/21 06:11:16;;;;;;;19.20;14.50;;;;;;;5.77;56.74;100587.52;117296;1185;21899;-56
2021/11/21 06:13:44;;;;;;;18.40;14.20;;;;;;;5.87;57.01;100582.04;117376;1183;23611;-58
2021/11/21 06:16:13;;;;;;;18.40;14.60;;;;;;;5.97;57.31;100580.23;117316;1186;23455;-55
2021/11/21 06:18:41;;;;;;;19.20;15.10;;;;;;;6.08;57.10;100578.80;117361;1182;23210;-57
2021/11/21 06:21:09;;;;;;;21.30;14.60;;;;;;;6.19;57.12;100580.45;117360;1186;23641;-56
2021/11/21 06:23:37;;;;;;;19.00;14.70;;;;;;;6.29;57.23;100577.06;117360;1185;24163;-59
2021/11/21 06:26:06;;;;;;;22.20;14.80;;;;;;;6.39;56.74;100568.08;117326;1182;21895;-59
2021/11/21 06:28:34;;;;;;;18.30;14.30;;;;;;;6.48;56.94;100570.23;117343;1185;21853;-59
2021/11/21 06:31:03;;;;;;;18.30;14.60;;;;;;;6.57;56.84;100568.58;117364;1185;24159;-56
2021/11/21 06:33:31;;;;;;;18.30;14.60;;;;;;;6.66;57.17;100568.98;117307;1183;21853;-58
2021/11/21 06:36:02;;;;;;;24.50;15.90;;;;;;;6.77;57.24;100573.41;117313;1175;24203;-58
2021/11/21 06:38:32;;;;;;;21.90;15.10;;;;;;;6.90;57.37;100569.81;117305;1185;21939;-59
2021/11/21 06:41:00;;;;;;;19.90;15.60;;;;;;;7.02;57.28;100569.37;117379;1182;21857;-56
2021/11/21 06:43:29;;;;;;;24.10;17.10;;;;;;;7.18;57.47;100571.37;117432;1183;24159;-56
2021/11/21 06:45:58;;;;;;;19.40;14.90;;;;;;;7.32;57.38;100562.18;117378;1182;21992;-57
2021/11/21 06:48:26;;;;;;;17.70;14.40;;;;;;;7.48;57.32;100556.99;117272;1182;21864;-57
2021/11/21 06:50:54;;;;;;;20.30;15.30;;;;;;;7.63;57.37;100554.77;117362;1186;23107;-60
2021/11/21 06:53:22;;;;;;;20.20;15.40;;;;;;;7.78;57.30;100554.29;117409;1186;22322;-58
2021/11/21 06:55:50;;;;;;;29.30;15.50;;;;;;;7.95;57.58;100557.45;117448;1186;23441;-59
2021/11/21 06:58:19;;;;;;;20.20;16.90;;;;;;;8.10;57.50;100558.00;117329;1182;24642;-56
2021/11/21 07:00:47;;;;;;;21.50;16.00;;;;;;;8.25;57.48;100555.54;117254;1183;21845;-57
2021/11/21 07:03:15;;;;;;;22.70;15.80;;;;;;;8.39;57.69;100560.79;117392;1182;23545;-56
2021/11/21 07:05:44;;;;;;;19.30;14.70;;;;;;;8.55;57.42;100563.27;117346;1184;23636;-57
2021/11/21 07:08:12;;;;;;;25.50;15.30;;;;;;;8.69;57.57;100561.48;117360;1184;23353;-57
2021/11/21 07:10:41;;;;;;;18.40;15.20;;;;;;;8.82;57.48;100563.58;117355;1180;23554;-57
2021/11/21 07:13:09;;;;;;;20.80;15.80;;;;;;;8.93;57.67;100564.25;117434;1184;22917;-58
2021/11/21 07:15:38;;;;;;;20.00;15.00;;;;;;;9.02;57.62;100565.27;117436;1183;21857;-57
2021/11/21 07:18:06;;;;;;;18.30;14.20;;;;;;;9.13;57.71;100561.57;117339;1181;22908;-57
2021/11/21 07:20:34;;;;;;;19.00;13.30;;;;;;;9.23;57.77;100564.34;117355;1183;23569;-57
2021/11/21 07:23:03;;;;;;;17.70;14.00;;;;;;;9.35;57.64;100564.80;117362;1180;21858;-57
2021/11/21 07:25:32;;;;;;;18.50;14.10;;;;;;;9.46;57.59;100566.16;117386;1185;23569;-57
2021/11/21 07:28:00;;;;;;;17.20;13.40;;;;;;;9.59;57.72;100560.66;117387;1182;23560;-58
2021/11/21 07:30:28;;;;;;;16.10;13.90;;;;;;;9.69;57.64;100557.80;117432;1184;22798;-57
2021/11/21 07:32:56;;;;;;;15.90;12.70;;;;;;;9.82;57.76;100556.67;117363;1185;23024;-57
2021/11/21 07:35:24;;;;;;;19.20;14.30;;;;;;;9.95;57.83;100558.17;117376;1182;23483;-57
2021/11/21 07:37:53;;;;;;;15.00;12.20;;;;;;;10.10;57.81;100556.31;117298;1184;23563;-57
2021/11/21 07:40:21;;;;;;;18.50;13.90;;;;;;;10.25;57.91;100554.27;117313;1182;23467;-57
2021/11/21 07:42:54;;;;;;;20.50;14.10;;;;;;;10.41;57.99;100551.52;117317;1182;21847;-57
2021/11/21 07:45:22;;;;;;;14.90;12.50;;;;;;;10.46;58.18;100548.84;117394;1185;23554;-58
2021/11/21 07:47:50;;;;;;;18.70;14.90;;;;;;;10.58;58.33;100548.39;117309;1182;22918;-59
2021/11/21 07:50:19;;;;;;;13.90;11.60;;;;;;;10.74;58.32;100549.29;117389;1182;23465;-59
2021/11/21 07:52:47;;;;;;;25.60;15.80;;;;;;;10.92;58.30;100544.17;117341;1182;21848;-58
2021/11/21 07:55:15;;;;;;;21.50;15.50;;;;;;;11.19;58.09;100540.38;117350;1185;21896;-58
2021/11/21 07:57:44;;;;;;;21.20;12.40;;;;;;;11.35;58.32;100535.25;117322;1182;22651;-58
2021/11/21 08:00:12;;;;;;;16.20;10.80;;;;;;;11.50;58.21;100536.10;117208;1185;21864;-59
2021/11/21 08:02:41;;;;;;;18.00;12.90;;;;;;;11.72;57.92;100532.45;117389;1185;21886;-59
2021/11/21 08:05:10;;;;;;;19.70;14.20;;;;;;;11.80;58.06;100533.56;117282;1186;24154;-59
2021/11/21 08:07:39;;;;;;;18.10;13.30;;;;;;;11.90;58.06;100533.25;117398;1183;23478;-58
2021/11/21 08:10:08;;;;;;;15.00;10.80;;;;;;;12.05;57.93;100530.05;117372;1186;21858;-59
2021/11/21 08:12:38;;;;;;;14.50;9.90;;;;;;;12.41;57.69;100534.02;117415;1182;23487;-59
2021/11/21 08:15:06;;;;;;;17.20;12.30;;;;;;;12.38;57.63;100530.56;117296;1185;23548;-58
2021/11/21 08:17:34;;;;;;;12.60;10.10;;;;;;;12.51;57.84;100527.34;117508;1186;22134;-59
2021/11/21 08:20:04;;;;;;;12.40;10.20;;;;;;;12.65;57.94;100523.05;117399;1182;24182;-59
2021/11/21 09:03:02;;;;;;;9.20;5.50;;;;;;;13.90;60.40;100489.21;115181;1204;556468;-63
2021/11/21 09:05:30;;;;;;;8.70;6.40;;;;;;;14.88;58.78;100479.30;116857;1189;23455;-65
2021/11/21 09:12:22;;;;;;;10.00;5.80;;;;;;;15.20;58.52;100464.93;116718;1186;22103;-53
2021/11/21 09:14:53;;;;;;;9.10;6.10;;;;;;;15.32;58.48;100457.86;116748;1191;21867;-66
2021/11/21 09:21:30;;;;;;;9.00;5.70;;;;;;;15.55;58.20;100449.69;116645;1191;21865;-65
2021/11/21 09:23:59;;;;;;;7.60;5.40;;;;;;;15.65;58.09;100445.16;116669;1189;22880;-54
2021/11/21 09:30:40;;;;;;;9.30;5.60;;;;;;;15.85;57.76;100433.55;116656;1182;24148;-54
2021/11/21 09:33:10;;;;;;;7.50;5.40;;;;;;;15.89;57.78;100431.13;116638;1191;21954;-64
2021/11/21 09:35:39;;;;;;;8.40;5.70;;;;;;;15.98;57.73;100424.98;116705;1187;21945;-64
2021/11/21 09:42:08;;;;;;;7.80;5.70;;;;;;;16.08;57.46;100423.07;117117;1186;21862;-54
2021/11/21 09:44:36;;;;;;;7.60;6.10;;;;;;;16.13;57.42;100423.07;116966;1182;21869;-63
2021/11/21 09:47:04;;;;;;;8.10;6.40;;;;;;;16.12;57.44;100420.98;117088;1187;21869;-64
2021/11/21 09:49:32;;;;;;;9.10;6.10;;;;;;;16.09;57.54;100416.48;117086;1188;21866;-63
2021/11/21 09:52:00;;;;;;;11.00;6.10;;;;;;;16.16;57.62;100412.87;116963;1185;24175;-54
2021/11/21 09:54:29;;;;;;;11.30;7.20;;;;;;;16.25;57.53;100412.56;117128;1185;23459;-60
2021/11/21 09:56:58;;;;;;;8.50;6.00;;;;;;;16.32;57.53;100407.73;116969;1186;22704;-54
2021/11/21 10:00:02;;;;;;;9.60;6.20;;;;;;;16.39;57.49;100399.85;117094;1185;22701;-64
2021/11/21 10:02:48;;;;;;;8.30;6.10;;;;;;;16.46;57.47;100392.50;116653;1186;23459;-54
2021/11/21 10:05:25;;;;;;;9.60;6.20;;;;;;;16.50;57.37;100387.22;116543;1190;21864;-53
2021/11/21 10:08:17;;;;;;;9.60;5.60;;;;;;;16.57;57.42;100383.42;116493;1190;22934;-64
2021/11/21 10:10:45;;;;;;;6.00;4.80;;;;;;;16.68;57.50;100375.57;118598;1188;21854;-54
2021/11/21 10:13:45;;;;;;;8.70;5.40;;;;;;;16.75;57.50;100370.02;116567;1190;21885;-55
2021/11/21 10:16:19;;;;;;;6.70;4.60;;;;;;;16.78;57.45;100364.02;116589;1189;23512;-53
2021/11/21 10:18:50;;;;;;;5.80;4.40;;;;;;;16.82;57.36;100361.40;116697;1191;21863;-54
2021/11/21 10:21:24;;;;;;;5.90;3.90;;;;;;;16.86;57.39;100358.41;116659;1189;21854;-54
2021/11/21 10:24:10;;;;;;;6.30;4.10;;;;;;;16.87;57.20;100354.67;116761;1192;21865;-65
2021/11/21 10:26:40;;;;;;;6.80;4.10;;;;;;;16.84;57.15;100351.92;116688;1186;21859;-64
2021/11/21 10:29:31;;;;;;;7.10;3.90;;;;;;;16.84;57.14;100345.73;116777;1187;22651;-64
2021/11/21 10:31:59;;;;;;;7.90;4.20;;;;;;;16.84;57.07;100343.63;116712;1182;21871;-64
2021/11/21 10:34:29;;;;;;;6.80;4.80;;;;;;;16.82;57.09;100338.72;116923;1182;21874;-54
2021/11/21 10:37:08;;;;;;;6.40;3.80;;;;;;;16.83;57.09;100339.41;116911;1188;23485;-64
2021/11/21 10:40:01;;;;;;;6.40;4.20;;;;;;;16.88;57.09;100339.20;117291;1184;23040;-54
2021/11/21 10:42:30;;;;;;;6.10;4.50;;;;;;;16.91;57.03;100331.48;117320;1185;21867;-54
2021/11/21 10:44:58;;;;;;;5.90;3.80;;;;;;;16.92;57.14;100325.57;119244;1184;21868;-54
2021/11/21 10:47:44;;;;;;;6.00;3.60;;;;;;;17.01;57.09;100324.57;117112;1186;21858;-58
2021/11/21 10:50:28;;;;;;;6.80;4.50;;;;;;;17.10;57.11;100319.57;117342;1185;21865;-54
2021/11/21 10:52:57;;;;;;;6.30;4.10;;;;;;;17.17;57.07;100321.08;117290;1182;23159;-64
2021/11/21 10:55:26;;;;;;;5.90;4.30;;;;;;;17.23;57.00;100313.89;117279;1184;23175;-54
2021/11/21 10:57:54;;;;;;;5.10;3.90;;;;;;;17.28;56.85;100312.48;117363;1182;22832;-54
2021/11/21 11:00:25;;;;;;;6.80;4.20;;;;;;;17.29;56.85;100301.61;117294;1182;21840;-54
2021/11/21 11:02:53;;;;;;;7.30;4.50;;;;;;;17.32;56.85;100292.61;117453;1184;23456;-64
2021/11/21 11:05:23;;;;;;;6.60;4.20;;;;;;;17.37;56.84;100283.89;117332;1182;23500;-64
2021/11/21 11:08:01;;;;;;;5.20;3.70;;;;;;;17.41;56.70;100279.31;117275;1185;22937;-63
2021/11/21 11:10:36;;;;;;;5.10;3.50;;;;;;;17.37;56.48;100275.20;117290;1182;23474;-54
2021/11/21 11:13:10;;;;;;;5.10;3.60;;;;;;;17.34;56.53;100273.42;117353;1184;22897;-54
2021/11/21 11:15:40;;;;;;;6.20;3.80;;;;;;;17.30;56.55;100273.56;117356;1185;22960;-54
2021/11/21 11:18:14;;;;;;;7.40;4.30;;;;;;;17.33;56.46;100270.05;117338;1179;21934;-54
2021/11/21 11:20:44;;;;;;;5.60;4.10;;;;;;;17.41;56.28;100267.06;117335;1184;23481;-53
2021/11/21 11:23:13;;;;;;;5.00;3.70;;;;;;;17.45;56.23;100261.91;117315;1185;22880;-53
2021/11/21 11:25:44;;;;;;;8.20;4.10;;;;;;;17.47;56.00;100257.44;117359;1183;23442;-54
2021/11/21 11:28:14;;;;;;;6.40;4.30;;;;;;;17.38;56.24;100256.55;117237;1182;23584;-64
2021/11/21 11:30:42;;;;;;;6.10;4.70;;;;;;;17.39;56.03;100259.90;117198;1185;22628;-64
2021/11/21 11:33:15;;;;;;;5.90;4.40;;;;;;;17.30;56.20;100256.17;117366;1182;24173;-54
2021/11/21 11:35:46;;;;;;;5.90;4.20;;;;;;;17.27;56.25;100253.30;117365;1185;22572;-64
2021/11/21 11:38:31;;;;;;;8.20;4.90;;;;;;;17.23;56.27;100251.14;117315;1176;24208;-64
2021/11/21 11:41:00;;;;;;;7.70;5.30;;;;;;;17.23;56.13;100249.92;117343;1185;21885;-64
2021/11/21 11:43:44;;;;;;;6.20;4.60;;;;;;;17.18;56.17;100247.98;117391;1176;22020;-54
2021/11/21 11:46:19;;;;;;;8.30;5.20;;;;;;;17.17;56.19;100242.54;117335;1179;22489;-64
2021/11/21 11:48:50;;;;;;;8.00;5.40;;;;;;;17.20;56.14;100239.05;117354;1185;24217;-54
2021/11/21 11:51:39;;;;;;;7.10;4.90;;;;;;;17.20;55.85;100235.66;117276;1185;21859;-53
2021/11/21 11:54:18;;;;;;;8.50;5.10;;;;;;;17.19;55.83;100225.06;117326;1183;23471;-54
2021/11/21 11:56:50;;;;;;;4.90;4.00;;;;;;;17.15;55.77;100222.56;117329;1185;22942;-53
2021/11/21 11:59:30;;;;;;;7.90;4.50;;;;;;;17.15;55.65;100218.02;117328;1183;23656;-64
2021/11/21 12:02:06;;;;;;;8.20;4.70;;;;;;;17.11;55.56;100217.96;117244;1186;21859;-54
2021/11/21 12:04:36;;;;;;;8.00;4.80;;;;;;;17.10;55.22;100210.94;117087;1182;23452;-64
2021/11/21 12:07:17;;;;;;;6.30;4.20;;;;;;;17.11;55.38;100207.86;117257;1186;23452;-54
2021/11/21 12:10:00;;;;;;;7.30;4.60;;;;;;;17.12;55.29;100210.82;117183;1186;21861;-53
2021/11/21 12:13:00;;;;;;;7.80;5.30;;;;;;;17.07;55.44;100206.96;117187;1185;23704;-63
2021/11/21 12:15:41;;;;;;;7.30;3.90;;;;;;;16.97;55.24;100207.54;117140;1183;24172;-54
2021/11/21 12:18:10;;;;;;;7.30;3.90;;;;;;;16.90;55.38;100207.12;117154;1179;22625;-63
2021/11/21 12:20:49;;;;;;;9.60;4.20;;;;;;;16.86;55.52;100203.89;118816;1184;22915;-54
2021/11/21 12:23:54;;;;;;;8.40;4.30;;;;;;;16.86;55.38;100205.31;119041;1186;21857;-54